createdAt,value
2019-01-30T00:00:16.441Z,99.99
2019-01-30T00:01:16.380Z,99.97
2019-01-30T00:02:16.369Z,99.99
2019-01-30T00:03:16.461Z,99.99
2019-01-30T00:04:16.369Z,99.99
2019-01-30T00:05:16.348Z,99.97
2019-01-30T00:06:16.317Z,99.99
2019-01-30T00:07:16.328Z,99.99
2019-01-30T00:08:16.381Z,99.99
2019-01-30T00:09:16.300Z,99.99
2019-01-30T00:10:16.289Z,99.99
2019-01-30T00:11:16.264Z,99.87
2019-01-30T00:12:16.264Z,99.99
2019-01-30T00:13:16.255Z,99.97
2019-01-30T00:14:16.260Z,99.99
2019-01-30T00:15:16.243Z,99.99
2019-01-30T00:16:16.232Z,99.87
2019-01-30T00:17:16.210Z,99.80
2019-01-30T00:18:16.200Z,99.99
2019-01-30T00:19:16.232Z,99.97
2019-01-30T00:20:16.172Z,99.97
2019-01-30T00:21:16.175Z,99.99
2019-01-30T00:22:16.174Z,99.99
2019-01-30T00:23:16.154Z,99.99
2019-01-30T00:24:16.133Z,99.99
2019-01-30T00:25:16.163Z,99.76
2019-01-30T00:26:16.115Z,99.99
2019-01-30T00:27:16.216Z,99.44
2019-01-30T00:28:16.110Z,99.99
2019-01-30T00:29:16.085Z,99.55
2019-01-30T00:30:16.077Z,99.76
2019-01-30T00:31:16.233Z,99.97
2019-01-30T00:32:16.204Z,99.99
2019-01-30T00:33:16.065Z,99.97
2019-01-30T00:34:16.051Z,99.99
2019-01-30T00:35:16.087Z,99.66
2019-01-30T00:36:16.017Z,99.97
2019-01-30T00:37:16.382Z,99.99
2019-01-30T00:38:15.994Z,99.97
2019-01-30T00:39:16.030Z,99.55
2019-01-30T00:40:15.971Z,99.38
2019-01-30T00:41:16.002Z,99.49
2019-01-30T00:42:15.956Z,99.99
2019-01-30T00:43:15.998Z,99.76
2019-01-30T00:44:16.030Z,99.34
2019-01-30T00:45:15.937Z,99.91
2019-01-30T00:46:15.940Z,99.80
2019-01-30T00:47:16.223Z,99.99
2019-01-30T00:48:15.901Z,99.91
2019-01-30T00:49:15.947Z,99.87
2019-01-30T00:50:15.880Z,99.99
2019-01-30T00:51:15.872Z,99.99
2019-01-30T00:52:15.867Z,99.97
2019-01-30T00:53:15.841Z,99.99
2019-01-30T00:54:15.862Z,99.60
2019-01-30T00:55:15.818Z,99.97
2019-01-30T00:56:15.814Z,99.87
2019-01-30T00:57:15.805Z,99.76
2019-01-30T00:58:15.799Z,99.99
2019-01-30T00:59:15.814Z,99.99
2019-01-30T01:00:15.775Z,99.99
2019-01-30T01:01:15.770Z,99.76
2019-01-30T01:02:15.743Z,99.99
2019-01-30T01:03:15.746Z,99.99
2019-01-30T01:04:15.750Z,99.99
2019-01-30T01:05:15.713Z,99.99
2019-01-30T01:06:15.703Z,99.99
2019-01-30T01:07:15.719Z,99.99
2019-01-30T01:08:15.690Z,99.99
2019-01-30T01:09:15.713Z,99.99
2019-01-30T01:10:15.690Z,99.99
2019-01-30T01:11:15.652Z,99.99
2019-01-30T01:12:15.648Z,99.99
2019-01-30T01:13:15.646Z,99.99
2019-01-30T01:14:15.654Z,99.87
2019-01-30T01:15:15.638Z,99.97
2019-01-30T01:16:15.631Z,99.99
2019-01-30T01:17:15.602Z,99.66
2019-01-30T01:18:15.587Z,99.99
2019-01-30T01:19:15.584Z,99.44
2019-01-30T01:20:15.873Z,99.70
2019-01-30T01:21:15.552Z,99.60
2019-01-30T01:22:15.551Z,99.70
2019-01-30T01:23:15.533Z,99.99
2019-01-30T01:24:15.521Z,99.99
2019-01-30T01:25:15.521Z,99.87
2019-01-30T01:26:15.620Z,99.99
2019-01-30T01:27:15.506Z,99.99
2019-01-30T01:28:15.483Z,99.99
2019-01-30T01:29:15.481Z,99.99
2019-01-30T01:30:24.525Z,99.99
2019-01-30T01:31:16.480Z,99.99
2019-01-30T01:32:15.445Z,99.91
2019-01-30T01:33:15.435Z,99.91
2019-01-30T01:34:15.418Z,99.99
2019-01-30T01:35:15.410Z,99.99
2019-01-30T01:36:15.404Z,99.80
2019-01-30T01:37:15.411Z,99.99
2019-01-30T01:38:15.387Z,99.70
2019-01-30T01:39:15.385Z,99.97
2019-01-30T01:40:15.361Z,99.99
2019-01-30T01:41:15.350Z,99.76
2019-01-30T01:42:15.343Z,99.91
2019-01-30T01:43:15.355Z,99.99
2019-01-30T01:44:15.462Z,99.99
2019-01-30T01:45:15.328Z,99.76
2019-01-30T01:46:15.310Z,99.70
2019-01-30T01:47:15.294Z,99.99
2019-01-30T01:48:15.292Z,99.80
2019-01-30T01:49:15.300Z,99.70
2019-01-30T01:50:15.267Z,99.91
2019-01-30T01:51:15.261Z,99.55
2019-01-30T01:52:15.244Z,99.66
2019-01-30T01:53:15.239Z,99.99
2019-01-30T01:54:15.216Z,99.99
2019-01-30T01:55:15.229Z,99.99
2019-01-30T01:56:15.207Z,99.99
2019-01-30T01:57:15.200Z,99.99
2019-01-30T01:58:15.189Z,99.99
2019-01-30T01:59:15.180Z,99.99
2019-01-30T02:00:15.179Z,99.99
2019-01-30T02:01:15.167Z,99.76
2019-01-30T02:02:15.135Z,99.87
2019-01-30T02:03:15.131Z,99.76
2019-01-30T02:04:15.125Z,99.34
2019-01-30T02:05:15.136Z,99.28
2019-01-30T02:06:15.113Z,99.03
2019-01-30T02:07:15.089Z,99.03
2019-01-30T02:08:15.074Z,99.55
2019-01-30T02:09:15.077Z,98.65
2019-01-30T02:10:15.084Z,99.07
2019-01-30T02:11:15.048Z,99.24
2019-01-30T02:12:15.055Z,99.03
2019-01-30T02:13:15.023Z,99.18
2019-01-30T02:14:15.015Z,99.13
2019-01-30T02:15:15.003Z,99.03
2019-01-30T02:16:15.052Z,99.07
2019-01-30T02:17:15.076Z,99.07
2019-01-30T02:18:14.989Z,99.18
2019-01-30T02:19:14.970Z,99.03
2019-01-30T02:20:14.958Z,99.03
2019-01-30T02:21:14.960Z,98.92
2019-01-30T02:22:14.958Z,98.97
2019-01-30T02:23:14.924Z,99.03
2019-01-30T02:24:14.931Z,98.82
2019-01-30T02:25:14.905Z,99.13
2019-01-30T02:26:14.906Z,99.18
2019-01-30T02:27:14.890Z,99.03
2019-01-30T02:28:14.911Z,98.97
2019-01-30T02:29:14.874Z,99.24
2019-01-30T02:30:14.848Z,99.49
2019-01-30T02:31:14.846Z,98.55
2019-01-30T02:32:14.839Z,98.97
2019-01-30T02:33:14.833Z,98.97
2019-01-30T02:34:14.839Z,98.97
2019-01-30T02:35:14.804Z,98.82
2019-01-30T02:36:14.817Z,98.82
2019-01-30T02:37:14.793Z,98.44
2019-01-30T02:38:14.769Z,98.55
2019-01-30T02:39:14.786Z,98.39
2019-01-30T02:40:14.783Z,98.19
2019-01-30T02:41:14.833Z,98.13
2019-01-30T02:42:14.733Z,98.55
2019-01-30T02:43:14.717Z,98.82
2019-01-30T02:44:14.711Z,98.82
2019-01-30T02:45:14.698Z,98.65
2019-01-30T02:46:14.725Z,98.65
2019-01-30T02:47:14.694Z,98.02
2019-01-30T02:48:14.683Z,98.02
2019-01-30T02:49:14.654Z,98.34
2019-01-30T02:50:14.659Z,98.23
2019-01-30T02:51:14.658Z,98.34
2019-01-30T02:52:14.629Z,97.98
2019-01-30T02:53:14.624Z,98.13
2019-01-30T02:54:14.633Z,97.98
2019-01-30T02:55:14.598Z,98.02
2019-01-30T02:56:14.605Z,98.34
2019-01-30T02:57:14.576Z,97.71
2019-01-30T02:58:14.562Z,97.92
2019-01-30T02:59:14.567Z,97.92
2019-01-30T03:00:14.560Z,97.81
2019-01-30T03:01:14.558Z,98.23
2019-01-30T03:02:14.526Z,97.60
2019-01-30T03:03:14.534Z,98.02
2019-01-30T03:04:14.501Z,98.23
2019-01-30T03:05:14.497Z,98.02
2019-01-30T03:06:14.500Z,97.71
2019-01-30T03:07:14.510Z,98.13
2019-01-30T03:08:14.472Z,98.02
2019-01-30T03:09:14.459Z,98.44
2019-01-30T03:10:14.444Z,98.13
2019-01-30T03:11:14.434Z,98.23
2019-01-30T03:12:14.432Z,98.13
2019-01-30T03:13:14.438Z,98.02
2019-01-30T03:14:14.399Z,98.13
2019-01-30T03:15:14.395Z,97.92
2019-01-30T03:16:14.401Z,98.23
2019-01-30T03:17:14.372Z,98.34
2019-01-30T03:18:14.366Z,98.13
2019-01-30T03:19:14.388Z,98.44
2019-01-30T03:20:14.344Z,98.23
2019-01-30T03:21:14.333Z,97.81
2019-01-30T03:22:14.327Z,97.81
2019-01-30T03:23:14.306Z,98.02
2019-01-30T03:24:14.320Z,98.23
2019-01-30T03:25:14.322Z,98.13
2019-01-30T03:26:14.292Z,97.86
2019-01-30T03:27:14.287Z,97.92
2019-01-30T03:28:14.277Z,98.23
2019-01-30T03:29:14.262Z,97.81
2019-01-30T03:30:14.257Z,98.23
2019-01-30T03:31:17.544Z,98.13
2019-01-30T03:32:14.225Z,97.92
2019-01-30T03:33:14.228Z,98.34
2019-01-30T03:34:14.202Z,98.80
2019-01-30T03:35:14.201Z,98.86
2019-01-30T03:36:14.201Z,98.55
2019-01-30T03:37:14.184Z,98.55
2019-01-30T03:38:14.171Z,98.86
2019-01-30T03:39:14.155Z,98.75
2019-01-30T03:40:14.133Z,98.13
2019-01-30T03:41:14.129Z,98.02
2019-01-30T03:42:14.132Z,98.13
2019-01-30T03:43:14.126Z,97.92
2019-01-30T03:44:14.110Z,98.34
2019-01-30T03:45:14.113Z,98.13
2019-01-30T03:46:14.073Z,98.13
2019-01-30T03:47:14.095Z,98.55
2019-01-30T03:48:14.058Z,98.86
2019-01-30T03:49:14.042Z,98.86
2019-01-30T03:50:14.036Z,98.75
2019-01-30T03:51:14.052Z,98.65
2019-01-30T03:52:14.022Z,99.07
2019-01-30T03:53:14.056Z,98.65
2019-01-30T03:54:13.990Z,98.75
2019-01-30T03:55:13.983Z,98.86
2019-01-30T03:56:13.984Z,98.86
2019-01-30T03:57:13.975Z,98.86
2019-01-30T03:58:13.951Z,98.97
2019-01-30T03:59:13.995Z,99.07
2019-01-30T04:00:13.933Z,98.82
2019-01-30T04:01:13.918Z,98.86
2019-01-30T04:02:13.922Z,98.86
2019-01-30T04:03:13.930Z,98.86
2019-01-30T04:04:13.895Z,98.65
2019-01-30T04:05:14.007Z,98.65
2019-01-30T04:06:13.883Z,98.65
2019-01-30T04:07:13.884Z,98.23
2019-01-30T04:08:13.847Z,98.34
2019-01-30T04:09:13.881Z,98.23
2019-01-30T04:10:13.833Z,98.34
2019-01-30T04:11:13.887Z,98.23
2019-01-30T04:12:13.808Z,98.34
2019-01-30T04:13:13.809Z,98.34
2019-01-30T04:14:13.806Z,98.13
2019-01-30T04:15:13.797Z,97.87
2019-01-30T04:16:13.816Z,97.87
2019-01-30T04:17:13.760Z,98.13
2019-01-30T04:18:13.753Z,97.87
2019-01-30T04:19:13.741Z,98.13
2019-01-30T04:20:13.734Z,98.13
2019-01-30T04:21:13.723Z,98.19
2019-01-30T04:22:13.744Z,97.66
2019-01-30T04:23:13.711Z,97.77
2019-01-30T04:24:13.696Z,98.13
2019-01-30T04:25:13.687Z,97.56
2019-01-30T04:26:13.675Z,98.23
2019-01-30T04:27:13.700Z,98.13
2019-01-30T04:28:13.682Z,98.13
2019-01-30T04:29:13.649Z,97.87
2019-01-30T04:30:13.623Z,98.08
2019-01-30T04:31:13.612Z,97.87
2019-01-30T04:32:13.604Z,97.92
2019-01-30T04:33:13.613Z,97.81
2019-01-30T04:34:13.615Z,97.92
2019-01-30T04:35:13.569Z,97.77
2019-01-30T04:36:13.568Z,97.60
2019-01-30T04:37:13.560Z,97.71
2019-01-30T04:38:13.561Z,97.45
2019-01-30T04:39:13.578Z,97.71
2019-01-30T04:40:13.534Z,97.60
2019-01-30T04:41:13.522Z,97.50
2019-01-30T04:42:13.503Z,97.71
2019-01-30T04:43:13.497Z,97.92
2019-01-30T04:44:13.512Z,97.77
2019-01-30T04:45:13.482Z,97.92
2019-01-30T04:46:13.467Z,97.98
2019-01-30T04:47:13.467Z,97.98
2019-01-30T04:48:13.438Z,97.92
2019-01-30T04:49:13.436Z,97.66
2019-01-30T04:50:13.460Z,97.66
2019-01-30T04:51:13.439Z,97.66
2019-01-30T04:52:13.405Z,97.77
2019-01-30T04:53:13.490Z,97.87
2019-01-30T04:54:13.384Z,97.29
2019-01-30T04:55:13.367Z,96.93
2019-01-30T04:56:13.390Z,97.29
2019-01-30T04:57:13.372Z,97.18
2019-01-30T04:58:13.340Z,96.87
2019-01-30T04:59:13.330Z,97.08
2019-01-30T05:00:13.317Z,97.35
2019-01-30T05:01:13.315Z,97.14
2019-01-30T05:02:13.334Z,97.45
2019-01-30T05:03:13.333Z,97.18
2019-01-30T05:04:13.284Z,97.29
2019-01-30T05:05:13.270Z,97.24
2019-01-30T05:06:13.273Z,97.29
2019-01-30T05:07:13.275Z,96.83
2019-01-30T05:08:13.261Z,96.93
2019-01-30T05:09:13.259Z,96.34
2019-01-30T05:10:13.246Z,97.50
2019-01-30T05:11:13.212Z,97.39
2019-01-30T05:12:13.199Z,97.50
2019-01-30T05:13:13.238Z,96.24
2019-01-30T05:14:13.201Z,96.87
2019-01-30T05:15:13.160Z,97.71
2019-01-30T05:16:13.163Z,97.24
2019-01-30T05:17:13.148Z,97.08
2019-01-30T05:18:13.135Z,97.50
2019-01-30T05:19:13.151Z,97.29
2019-01-30T05:20:13.136Z,97.18
2019-01-30T05:21:13.128Z,97.18
2019-01-30T05:22:13.096Z,96.97
2019-01-30T05:23:13.089Z,97.29
2019-01-30T05:24:13.091Z,96.97
2019-01-30T05:25:13.072Z,97.39
2019-01-30T05:26:13.071Z,97.87
2019-01-30T05:27:13.044Z,96.97
2019-01-30T05:28:13.036Z,97.39
2019-01-30T05:29:13.047Z,97.29
2019-01-30T05:30:13.014Z,97.35
2019-01-30T05:31:12.999Z,97.81
2019-01-30T05:32:13.012Z,97.45
2019-01-30T05:33:12.987Z,97.14
2019-01-30T05:34:12.975Z,97.18
2019-01-30T05:35:12.974Z,97.08
2019-01-30T05:36:12.981Z,97.29
2019-01-30T05:37:12.941Z,97.60
2019-01-30T05:38:12.928Z,96.83
2019-01-30T05:39:12.971Z,96.83
2019-01-30T05:40:12.922Z,96.45
2019-01-30T05:41:12.902Z,96.77
2019-01-30T05:42:12.891Z,96.72
2019-01-30T05:43:13.072Z,96.97
2019-01-30T05:44:12.870Z,97.29
2019-01-30T05:45:12.899Z,97.35
2019-01-30T05:46:12.856Z,97.18
2019-01-30T05:47:12.868Z,97.24
2019-01-30T05:48:12.829Z,97.56
2019-01-30T05:49:12.826Z,97.29
2019-01-30T05:50:12.857Z,97.45
2019-01-30T05:51:12.821Z,97.50
2019-01-30T05:52:12.791Z,97.39
2019-01-30T05:53:12.795Z,97.18
2019-01-30T05:54:12.764Z,97.03
2019-01-30T05:55:12.766Z,97.45
2019-01-30T05:56:12.768Z,97.56
2019-01-30T05:57:12.753Z,97.24
2019-01-30T05:58:12.728Z,96.83
2019-01-30T05:59:12.727Z,96.72
2019-01-30T06:00:12.709Z,96.77
2019-01-30T06:01:12.716Z,96.72
2019-01-30T06:02:12.710Z,96.72
2019-01-30T06:03:12.692Z,96.77
2019-01-30T06:04:12.673Z,96.97
2019-01-30T06:05:12.653Z,96.83
2019-01-30T06:06:12.667Z,96.83
2019-01-30T06:07:12.661Z,96.45
2019-01-30T06:08:12.627Z,96.87
2019-01-30T06:09:12.629Z,96.66
2019-01-30T06:10:12.719Z,96.51
2019-01-30T06:11:12.594Z,96.55
2019-01-30T06:12:12.718Z,96.24
2019-01-30T06:13:12.582Z,96.13
2019-01-30T06:14:12.572Z,95.88
2019-01-30T06:15:12.573Z,96.30
2019-01-30T06:16:12.548Z,96.30
2019-01-30T06:17:12.538Z,96.30
2019-01-30T06:18:12.549Z,95.88
2019-01-30T06:19:12.516Z,95.88
2019-01-30T06:20:12.532Z,95.98
2019-01-30T06:21:12.496Z,96.19
2019-01-30T06:22:12.509Z,95.78
2019-01-30T06:23:12.523Z,95.78
2019-01-30T06:24:12.463Z,95.36
2019-01-30T06:25:12.472Z,95.88
2019-01-30T06:26:12.454Z,95.88
2019-01-30T06:27:12.442Z,95.15
2019-01-30T06:28:12.463Z,95.78
2019-01-30T06:29:12.461Z,96.09
2019-01-30T06:30:12.403Z,95.67
2019-01-30T06:31:12.400Z,95.84
2019-01-30T06:32:21.511Z,95.88
2019-01-30T06:33:13.371Z,96.09
2019-01-30T06:34:12.371Z,95.78
2019-01-30T06:35:12.371Z,95.78
2019-01-30T06:36:12.338Z,95.84
2019-01-30T06:37:12.341Z,95.78
2019-01-30T06:38:12.340Z,95.88
2019-01-30T06:39:12.322Z,95.25
2019-01-30T06:40:12.359Z,95.67
2019-01-30T06:41:12.291Z,95.78
2019-01-30T06:42:12.280Z,95.88
2019-01-30T06:43:12.278Z,95.78
2019-01-30T06:44:12.287Z,95.46
2019-01-30T06:45:12.257Z,95.73
2019-01-30T06:46:12.279Z,95.78
2019-01-30T06:47:12.231Z,95.73
2019-01-30T06:48:12.217Z,95.78
2019-01-30T06:49:12.213Z,95.36
2019-01-30T06:50:12.196Z,95.78
2019-01-30T06:51:12.209Z,95.73
2019-01-30T06:52:12.237Z,95.21
2019-01-30T06:53:12.221Z,95.73
2019-01-30T06:54:12.158Z,95.84
2019-01-30T06:55:12.149Z,95.31
2019-01-30T06:56:12.150Z,95.62
2019-01-30T06:57:12.155Z,95.73
2019-01-30T06:58:12.185Z,95.78
2019-01-30T06:59:12.108Z,95.21
2019-01-30T07:00:12.110Z,95.62
2019-01-30T07:01:12.105Z,95.73
2019-01-30T07:02:12.073Z,95.42
2019-01-30T07:03:12.100Z,95.31
2019-01-30T07:04:12.050Z,95.84
2019-01-30T07:05:12.043Z,95.52
2019-01-30T07:06:12.050Z,95.42
2019-01-30T07:07:12.041Z,95.42
2019-01-30T07:08:12.010Z,95.42
2019-01-30T07:09:12.034Z,95.31
2019-01-30T07:10:11.995Z,95.42
2019-01-30T07:11:11.996Z,95.42
2019-01-30T07:12:11.981Z,95.62
2019-01-30T07:13:12.004Z,95.52
2019-01-30T07:14:12.004Z,95.52
2019-01-30T07:15:11.944Z,95.52
2019-01-30T07:16:11.935Z,95.52
2019-01-30T07:17:12.013Z,95.62
2019-01-30T07:18:11.925Z,95.62
2019-01-30T07:19:11.958Z,95.52
2019-01-30T07:20:11.929Z,95.42
2019-01-30T07:21:11.926Z,94.79
2019-01-30T07:22:11.868Z,95.10
2019-01-30T07:23:11.890Z,95.10
2019-01-30T07:24:11.879Z,95.21
2019-01-30T07:25:11.854Z,95.10
2019-01-30T07:26:11.848Z,95.21
2019-01-30T07:27:11.915Z,95.21
2019-01-30T07:28:11.861Z,95.42
2019-01-30T07:29:11.796Z,94.26
2019-01-30T07:30:11.785Z,94.47
2019-01-30T07:31:11.830Z,95.31
2019-01-30T07:32:11.793Z,95.10
2019-01-30T07:33:11.808Z,95.21
2019-01-30T07:34:11.741Z,95.42
2019-01-30T07:35:11.749Z,94.85
2019-01-30T07:36:11.730Z,94.47
2019-01-30T07:37:11.743Z,94.79
2019-01-30T07:38:11.708Z,95.58
2019-01-30T07:39:11.692Z,95.21
2019-01-30T07:40:11.699Z,95.52
2019-01-30T07:41:11.705Z,95.42
2019-01-30T07:42:11.690Z,94.89
2019-01-30T07:43:11.660Z,94.89
2019-01-30T07:44:11.641Z,95.37
2019-01-30T07:45:11.635Z,94.95
2019-01-30T07:46:11.631Z,94.32
2019-01-30T07:47:11.616Z,94.22
2019-01-30T07:48:11.632Z,94.26
2019-01-30T07:49:11.589Z,94.12
2019-01-30T07:50:11.586Z,93.91
2019-01-30T07:51:11.598Z,94.32
2019-01-30T07:52:11.569Z,93.59
2019-01-30T07:53:11.607Z,94.32
2019-01-30T07:54:11.589Z,94.32
2019-01-30T07:55:11.532Z,94.12
2019-01-30T07:56:11.530Z,93.91
2019-01-30T07:57:11.509Z,93.70
2019-01-30T07:58:11.518Z,93.49
2019-01-30T07:59:11.529Z,93.49
2019-01-30T08:00:11.474Z,93.38
2019-01-30T08:01:11.496Z,94.01
2019-01-30T08:02:11.462Z,93.49
2019-01-30T08:03:11.481Z,93.70
2019-01-30T08:04:11.452Z,93.70
2019-01-30T08:05:11.454Z,93.59
2019-01-30T08:06:11.459Z,93.49
2019-01-30T08:07:11.406Z,93.38
2019-01-30T08:08:11.410Z,93.38
2019-01-30T08:09:11.385Z,93.49
2019-01-30T08:10:11.798Z,93.13
2019-01-30T08:11:11.362Z,93.24
2019-01-30T08:12:12.646Z,93.13
2019-01-30T08:13:11.353Z,93.34
2019-01-30T08:14:11.337Z,93.13
2019-01-30T08:15:11.346Z,93.24
2019-01-30T08:16:11.349Z,93.55
2019-01-30T08:17:11.304Z,93.24
2019-01-30T08:18:11.306Z,93.44
2019-01-30T08:19:11.309Z,93.34
2019-01-30T08:20:11.270Z,93.13
2019-01-30T08:21:11.280Z,93.65
2019-01-30T08:22:11.265Z,93.13
2019-01-30T08:23:11.451Z,93.02
2019-01-30T08:24:11.292Z,93.65
2019-01-30T08:25:11.241Z,93.02
2019-01-30T08:26:11.604Z,93.02
2019-01-30T08:27:11.534Z,93.13
2019-01-30T08:28:11.416Z,93.13
2019-01-30T08:29:11.544Z,93.44
2019-01-30T08:30:22.079Z,93.02
2019-01-30T08:31:12.308Z,93.13
2019-01-30T08:32:11.172Z,93.44
2019-01-30T08:33:11.168Z,93.24
2019-01-30T08:34:11.131Z,92.98
2019-01-30T08:35:11.126Z,93.19
2019-01-30T08:36:11.106Z,93.24
2019-01-30T08:37:11.094Z,93.08
2019-01-30T08:38:11.112Z,93.30
2019-01-30T08:39:11.079Z,93.02
2019-01-30T08:40:11.064Z,93.87
2019-01-30T08:41:11.057Z,93.24
2019-01-30T08:42:11.065Z,93.51
2019-01-30T08:43:11.048Z,93.61
2019-01-30T08:44:11.028Z,93.40
2019-01-30T08:45:11.009Z,92.57
2019-01-30T08:46:11.037Z,92.29
2019-01-30T08:47:10.996Z,92.67
2019-01-30T08:48:10.977Z,92.67
2019-01-30T08:49:11.013Z,92.67
2019-01-30T08:50:10.961Z,92.46
2019-01-30T08:51:10.960Z,92.14
2019-01-30T08:52:10.936Z,92.04
2019-01-30T08:53:10.938Z,92.98
2019-01-30T08:54:10.943Z,92.98
2019-01-30T08:55:10.911Z,93.40
2019-01-30T08:56:10.895Z,93.19
2019-01-30T08:57:10.892Z,93.51
2019-01-30T08:58:10.879Z,93.30
2019-01-30T08:59:10.925Z,93.08
2019-01-30T09:00:10.898Z,93.08
2019-01-30T09:01:10.860Z,93.40
2019-01-30T09:02:10.835Z,93.82
2019-01-30T09:03:14.842Z,92.46
2019-01-30T09:04:11.397Z,92.35
2019-01-30T09:05:10.831Z,91.94
2019-01-30T09:06:10.790Z,92.25
2019-01-30T09:07:10.799Z,92.25
2019-01-30T09:08:10.805Z,92.04
2019-01-30T09:09:10.766Z,91.72
2019-01-30T09:10:10.775Z,91.94
2019-01-30T09:11:10.765Z,91.52
2019-01-30T09:12:10.764Z,91.31
2019-01-30T09:13:10.732Z,91.41
2019-01-30T09:14:10.707Z,92.10
2019-01-30T09:15:10.720Z,91.62
2019-01-30T09:16:10.729Z,91.89
2019-01-30T09:17:10.680Z,92.35
2019-01-30T09:18:10.663Z,92.00
2019-01-30T09:19:10.674Z,92.10
2019-01-30T09:20:10.645Z,91.79
2019-01-30T09:21:10.671Z,91.79
2019-01-30T09:22:10.698Z,92.31
2019-01-30T09:23:10.629Z,92.00
2019-01-30T09:24:10.613Z,92.21
2019-01-30T09:25:10.604Z,91.22
2019-01-30T09:26:10.591Z,91.06
2019-01-30T09:27:10.606Z,92.00
2019-01-30T09:28:10.559Z,92.31
2019-01-30T09:29:10.551Z,91.54
2019-01-30T09:30:10.612Z,90.95
2019-01-30T09:31:10.541Z,91.27
2019-01-30T09:32:10.577Z,90.70
2019-01-30T09:33:10.532Z,90.84
2019-01-30T09:34:10.503Z,90.39
2019-01-30T09:35:10.488Z,90.70
2019-01-30T09:36:10.521Z,90.59
2019-01-30T09:37:10.498Z,90.59
2019-01-30T09:38:10.551Z,90.59
2019-01-30T09:39:10.473Z,91.02
2019-01-30T09:40:10.472Z,91.02
2019-01-30T09:41:10.474Z,90.81
2019-01-30T09:42:10.611Z,90.91
2019-01-30T09:43:10.407Z,90.49
2019-01-30T09:44:10.452Z,90.49
2019-01-30T09:45:10.411Z,90.49
2019-01-30T09:46:10.396Z,90.39
2019-01-30T09:47:10.367Z,90.28
2019-01-30T09:48:10.424Z,90.18
2019-01-30T09:49:10.344Z,89.86
2019-01-30T09:50:10.727Z,89.86
2019-01-30T09:51:10.336Z,89.65
2019-01-30T09:52:10.477Z,89.13
2019-01-30T09:53:10.303Z,89.03
2019-01-30T09:54:10.331Z,89.03
2019-01-30T09:55:10.388Z,89.61
2019-01-30T09:56:10.289Z,89.76
2019-01-30T09:57:10.261Z,89.55
2019-01-30T09:58:10.247Z,89.34
2019-01-30T09:59:10.234Z,90.14
2019-01-30T10:00:10.260Z,90.49
2019-01-30T10:01:10.218Z,90.87
2019-01-30T10:02:10.468Z,90.24
2019-01-30T10:03:12.742Z,90.34
2019-01-30T10:04:10.190Z,90.77
2019-01-30T10:05:10.184Z,90.56
2019-01-30T10:06:10.192Z,90.70
2019-01-30T10:07:10.204Z,90.03
2019-01-30T10:08:10.148Z,89.20
2019-01-30T10:09:10.134Z,89.30
2019-01-30T10:10:10.120Z,89.09
2019-01-30T10:11:10.108Z,89.30
2019-01-30T10:12:10.122Z,89.20
2019-01-30T10:13:10.090Z,88.88
2019-01-30T10:14:10.094Z,89.30
2019-01-30T10:15:10.085Z,88.84
2019-01-30T10:16:10.069Z,89.09
2019-01-30T10:17:10.074Z,88.42
2019-01-30T10:18:10.033Z,89.15
2019-01-30T10:19:10.028Z,89.05
2019-01-30T10:20:10.018Z,88.67
2019-01-30T10:21:10.012Z,88.42
2019-01-30T10:22:10.019Z,88.64
2019-01-30T10:23:09.995Z,88.74
2019-01-30T10:24:10.022Z,89.15
2019-01-30T10:25:09.973Z,88.95
2019-01-30T10:26:09.954Z,88.32
2019-01-30T10:27:09.951Z,88.01
2019-01-30T10:28:16.298Z,88.01
2019-01-30T10:29:10.917Z,87.69
2019-01-30T10:30:09.933Z,88.01
2019-01-30T10:31:09.941Z,86.96
2019-01-30T10:32:09.885Z,86.54
2019-01-30T10:33:09.880Z,88.21
2019-01-30T10:34:09.889Z,88.32
2019-01-30T10:35:09.872Z,87.90
2019-01-30T10:36:09.841Z,88.32
2019-01-30T10:37:09.839Z,89.05
2019-01-30T10:38:09.827Z,88.84
2019-01-30T10:39:09.838Z,88.80
2019-01-30T10:40:09.806Z,87.96
2019-01-30T10:41:09.810Z,87.96
2019-01-30T10:42:09.783Z,88.59
2019-01-30T10:43:09.772Z,88.90
2019-01-30T10:44:09.827Z,87.76
2019-01-30T10:45:09.778Z,87.23
2019-01-30T10:46:09.742Z,87.02
2019-01-30T10:47:09.736Z,87.23
2019-01-30T10:48:09.716Z,87.23
2019-01-30T10:49:09.717Z,86.67
2019-01-30T10:50:09.719Z,86.77
2019-01-30T10:51:09.699Z,85.35
2019-01-30T10:52:09.676Z,85.73
2019-01-30T10:53:09.658Z,86.36
2019-01-30T10:54:09.649Z,86.57
2019-01-30T10:55:09.638Z,86.99
2019-01-30T10:56:09.642Z,86.15
2019-01-30T10:57:09.629Z,85.21
2019-01-30T10:58:09.616Z,85.31
2019-01-30T10:59:09.600Z,84.89
2019-01-30T11:00:09.600Z,86.99
2019-01-30T11:01:09.602Z,85.63
2019-01-30T11:02:09.570Z,86.77
2019-01-30T11:03:09.574Z,85.83
2019-01-30T11:04:09.593Z,86.77
2019-01-30T11:05:09.574Z,87.09
2019-01-30T11:06:09.558Z,85.94
2019-01-30T11:07:09.543Z,86.77
2019-01-30T11:08:09.512Z,85.52
2019-01-30T11:09:09.498Z,85.21
2019-01-30T11:10:09.489Z,85.00
2019-01-30T11:11:09.469Z,84.65
2019-01-30T11:12:09.482Z,85.00
2019-01-30T11:13:09.546Z,84.96
2019-01-30T11:14:09.462Z,84.96
2019-01-30T11:15:09.444Z,84.55
2019-01-30T11:16:09.432Z,84.44
2019-01-30T11:17:09.403Z,85.17
2019-01-30T11:18:09.418Z,86.53
2019-01-30T11:19:09.384Z,86.63
2019-01-30T11:20:09.378Z,84.55
2019-01-30T11:21:09.359Z,84.44
2019-01-30T11:22:09.356Z,86.21
2019-01-30T11:23:09.405Z,85.69
2019-01-30T11:24:09.333Z,84.96
2019-01-30T11:25:09.332Z,84.34
2019-01-30T11:26:09.309Z,84.75
2019-01-30T11:27:09.298Z,84.50
2019-01-30T11:28:09.289Z,84.34
2019-01-30T11:29:09.309Z,84.44
2019-01-30T11:30:09.283Z,84.19
2019-01-30T11:31:09.245Z,84.19
2019-01-30T11:32:09.241Z,83.67
2019-01-30T11:33:09.227Z,84.50
2019-01-30T11:34:09.226Z,84.40
2019-01-30T11:35:09.235Z,83.67
2019-01-30T11:36:09.205Z,84.30
2019-01-30T11:37:09.304Z,83.36
2019-01-30T11:38:09.218Z,84.72
2019-01-30T11:39:09.174Z,84.09
2019-01-30T11:40:09.228Z,83.04
2019-01-30T11:41:09.169Z,83.25
2019-01-30T11:42:09.135Z,83.15
2019-01-30T11:43:09.121Z,82.84
2019-01-30T11:44:09.120Z,82.90
2019-01-30T11:45:09.123Z,82.21
2019-01-30T11:46:09.135Z,83.01
2019-01-30T11:47:09.074Z,84.61
2019-01-30T11:48:09.081Z,83.84
2019-01-30T11:49:09.058Z,82.90
2019-01-30T11:50:09.040Z,82.48
2019-01-30T11:51:09.067Z,83.32
2019-01-30T11:52:09.041Z,83.84
2019-01-30T11:53:09.017Z,83.84
2019-01-30T11:54:08.999Z,82.28
2019-01-30T11:55:08.983Z,82.38
2019-01-30T11:56:08.972Z,82.63
2019-01-30T11:57:08.989Z,82.17
2019-01-30T11:58:08.963Z,81.02
2019-01-30T11:59:08.942Z,82.59
2019-01-30T12:00:08.940Z,82.48
2019-01-30T12:01:08.922Z,81.45
2019-01-30T12:02:08.924Z,82.48
2019-01-30T12:03:08.901Z,81.34
2019-01-30T12:04:17.716Z,80.30
2019-01-30T12:05:09.873Z,80.71
2019-01-30T12:06:08.869Z,82.90
2019-01-30T12:07:08.894Z,84.99
2019-01-30T12:08:08.841Z,81.65
2019-01-30T12:09:08.852Z,82.28
2019-01-30T12:10:08.827Z,82.48
2019-01-30T12:11:08.823Z,80.51
2019-01-30T12:12:08.811Z,81.23
2019-01-30T12:13:08.817Z,80.61
2019-01-30T12:14:08.792Z,80.30
2019-01-30T12:15:08.776Z,80.71
2019-01-30T12:16:08.759Z,81.55
2019-01-30T12:17:08.744Z,81.65
2019-01-30T12:18:08.739Z,80.61
2019-01-30T12:19:08.742Z,81.76
2019-01-30T12:20:08.722Z,80.82
2019-01-30T12:21:08.706Z,80.40
2019-01-30T12:22:08.727Z,80.71
2019-01-30T12:23:08.707Z,80.05
2019-01-30T12:24:08.714Z,79.98
2019-01-30T12:25:08.657Z,79.98
2019-01-30T12:26:08.655Z,80.68
2019-01-30T12:27:08.643Z,80.51
2019-01-30T12:28:08.676Z,81.20
2019-01-30T12:29:08.618Z,80.16
2019-01-30T12:30:08.625Z,79.43
2019-01-30T12:31:08.599Z,78.17
2019-01-30T12:32:08.588Z,79.43
2019-01-30T12:33:08.590Z,79.63
2019-01-30T12:34:08.568Z,79.11
2019-01-30T12:35:08.591Z,79.63
2019-01-30T12:36:08.572Z,79.11
2019-01-30T12:37:08.535Z,77.23
2019-01-30T12:38:08.519Z,77.97
2019-01-30T12:39:08.506Z,77.55
2019-01-30T12:40:08.498Z,75.88
2019-01-30T12:41:08.504Z,79.63
2019-01-30T12:42:08.498Z,79.22
2019-01-30T12:43:08.496Z,78.87
2019-01-30T12:44:08.455Z,79.18
2019-01-30T12:45:08.453Z,78.14
2019-01-30T12:46:08.461Z,77.76
2019-01-30T12:47:08.421Z,77.83
2019-01-30T12:48:10.687Z,77.72
2019-01-30T12:49:08.408Z,77.23
2019-01-30T12:50:08.389Z,77.62
2019-01-30T12:51:08.376Z,77.83
2019-01-30T12:52:08.396Z,76.89